EIWF

Details ICAO EIWF (WAT)
Name Waterford
Region Ireland
Timezone Europe/Dublin (UTC+0.0)
Plans Departing 112
Arriving 123
Stats Elevation 119 ft / 36 m (AMSL)
Location 52.187200° -7.086960°
Runways 1
Magnetic Variation 2.608° W
Sunrise 2021-02-28 07:18:00 UTC / 2021-02-28 07:18:00 Local
Sunset 2021-02-28 18:06:43 UTC / 2021-02-28 18:06:43 Local
Advertisement - Login to hide

Runways

ID Width Length Bearing (true/mag) Surface Threshold Overrun Markings Lighting
03 98 ft / 30 m 4,695 ft / 1,431 m 20.94° / 23.55° ASPHALT 292 ft / 89 m 0 ft / 0 m PREC-APP EDGE THRESHOLD SALS
21 98 ft / 30 m 4,695 ft / 1,431 m 200.95° / 203.55° ASPHALT 459 ft / 140 m 0 ft / 0 m PREC-APP EDGE THRESHOLD ALSF-I

Approach Navaids

Runway Type Ident Frequency Range Bearing (true/mag) Slope Elevation
21 GS IWD 110.90 MHz 10 nm / 19 km 201.92° / 204.53° 3.20° 29 ft / 9 m (AMSL)
21 DME IWD 110.90 MHz 18 nm / 33 km - - 29 ft / 9 m (AMSL)
21 LOC-ILS IWD 110.90 MHz 18 nm / 33 km 201.10° / 203.70° - 86 ft / 26 m (AMSL)

Map

Weather


0- 5 10 15 20 25 30 35+ Temperature / °C

Clouds and Precipitation
Forecast for 2021-02-28 12:00 UTC. Updated 5 hours ago

Ground ~20,000 ft ~40,000 ft Winds

METAR

EIWF 281500Z 11008KT 080V150 9999 FEW020 10/06 Q1035

TAF

Not found

Frequencies

Recorded 121.15 MHz ATIS
Ground 121.60 MHz
Tower 129.85 MHz
Warning: Do not use this data for real-world aviation or navigation. No guarantee of current accuracy is given.